sensor_id;sensor_type;location;lat;lon;timestamp;P1;durP1;ratioP1;P2;durP2;ratioP2
16512;SDS011;8369;48.030;11.598;2022-08-19T00:02:12;3.42;;;3.03;;
16512;SDS011;8369;48.030;11.598;2022-08-19T00:04:38;3.78;;;3.10;;
16512;SDS011;8369;48.030;11.598;2022-08-19T00:07:08;3.92;;;3.30;;
16512;SDS011;8369;48.030;11.598;2022-08-19T00:09:39;3.70;;;3.03;;
16512;SDS011;8369;48.030;11.598;2022-08-19T00:12:05;3.45;;;3.15;;
16512;SDS011;8369;48.030;11.598;2022-08-19T00:14:30;3.92;;;3.00;;
16512;SDS011;8369;48.030;11.598;2022-08-19T00:16:59;3.45;;;2.78;;
16512;SDS011;8369;48.030;11.598;2022-08-19T00:19:29;4.00;;;2.90;;
16512;SDS011;8369;48.030;11.598;2022-08-19T00:21:59;3.05;;;2.75;;
16512;SDS011;8369;48.030;11.598;2022-08-19T00:24:25;3.55;;;2.85;;
16512;SDS011;8369;48.030;11.598;2022-08-19T00:26:52;3.72;;;2.95;;
16512;SDS011;8369;48.030;11.598;2022-08-19T00:29:26;3.65;;;2.97;;
16512;SDS011;8369;48.030;11.598;2022-08-19T00:31:58;3.40;;;2.88;;
16512;SDS011;8369;48.030;11.598;2022-08-19T00:34:25;4.45;;;2.78;;
16512;SDS011;8369;48.030;11.598;2022-08-19T00:36:53;5.90;;;2.75;;
16512;SDS011;8369;48.030;11.598;2022-08-19T00:39:22;3.10;;;2.80;;
16512;SDS011;8369;48.030;11.598;2022-08-19T00:41:50;3.33;;;2.70;;
16512;SDS011;8369;48.030;11.598;2022-08-19T00:44:19;3.05;;;2.65;;
16512;SDS011;8369;48.030;11.598;2022-08-19T00:46:47;3.85;;;2.78;;
16512;SDS011;8369;48.030;11.598;2022-08-19T00:49:34;3.28;;;2.80;;
16512;SDS011;8369;48.030;11.598;2022-08-19T00:52:15;4.63;;;2.47;;
16512;SDS011;8369;48.030;11.598;2022-08-19T00:54:47;3.25;;;2.70;;
16512;SDS011;8369;48.030;11.598;2022-08-19T00:57:15;3.33;;;2.80;;
16512;SDS011;8369;48.030;11.598;2022-08-19T00:59:44;4.05;;;2.42;;
16512;SDS011;8369;48.030;11.598;2022-08-19T01:02:12;2.83;;;2.53;;
16512;SDS011;8369;48.030;11.598;2022-08-19T01:04:47;2.83;;;2.42;;
16512;SDS011;8369;48.030;11.598;2022-08-19T01:07:15;8.68;;;2.63;;
16512;SDS011;8369;48.030;11.598;2022-08-19T01:09:48;2.88;;;2.50;;
16512;SDS011;8369;48.030;11.598;2022-08-19T01:12:14;2.70;;;2.45;;
16512;SDS011;8369;48.030;11.598;2022-08-19T01:14:40;2.95;;;2.55;;
16512;SDS011;8369;48.030;11.598;2022-08-19T01:17:12;3.92;;;2.83;;
16512;SDS011;8369;48.030;11.598;2022-08-19T01:19:40;3.65;;;2.70;;
16512;SDS011;8369;48.030;11.598;2022-08-19T01:22:12;2.85;;;2.47;;
16512;SDS011;8369;48.030;11.598;2022-08-19T01:24:44;3.22;;;2.60;;
16512;SDS011;8369;48.030;11.598;2022-08-19T01:27:10;3.75;;;2.63;;
16512;SDS011;8369;48.030;11.598;2022-08-19T01:29:37;3.35;;;2.75;;
16512;SDS011;8369;48.030;11.598;2022-08-19T01:32:06;3.72;;;2.90;;
16512;SDS011;8369;48.030;11.598;2022-08-19T01:34:34;3.20;;;2.90;;
16512;SDS011;8369;48.030;11.598;2022-08-19T01:37:00;3.63;;;2.78;;
16512;SDS011;8369;48.030;11.598;2022-08-19T01:39:30;2.83;;;2.53;;
16512;SDS011;8369;48.030;11.598;2022-08-19T01:41:56;3.22;;;2.90;;
16512;SDS011;8369;48.030;11.598;2022-08-19T01:44:22;3.75;;;3.03;;
16512;SDS011;8369;48.030;11.598;2022-08-19T01:46:49;3.35;;;2.83;;
16512;SDS011;8369;48.030;11.598;2022-08-19T01:49:16;3.08;;;2.42;;
16512;SDS011;8369;48.030;11.598;2022-08-19T01:51:47;3.28;;;2.50;;
16512;SDS011;8369;48.030;11.598;2022-08-19T01:54:17;3.50;;;2.33;;
16512;SDS011;8369;48.030;11.598;2022-08-19T01:56:43;2.50;;;2.30;;
16512;SDS011;8369;48.030;11.598;2022-08-19T01:59:14;2.85;;;2.40;;
16512;SDS011;8369;48.030;11.598;2022-08-19T02:01:46;3.85;;;3.15;;
16512;SDS011;8369;48.030;11.598;2022-08-19T02:04:12;2.95;;;2.60;;
16512;SDS011;8369;48.030;11.598;2022-08-19T02:06:39;2.97;;;2.50;;
16512;SDS011;8369;48.030;11.598;2022-08-19T02:09:06;2.90;;;2.60;;
16512;SDS011;8369;48.030;11.598;2022-08-19T02:11:34;3.85;;;2.50;;
16512;SDS011;8369;48.030;11.598;2022-08-19T02:14:02;3.53;;;2.80;;
16512;SDS011;8369;48.030;11.598;2022-08-19T02:16:30;3.13;;;2.40;;
16512;SDS011;8369;48.030;11.598;2022-08-19T02:19:00;4.63;;;3.33;;
16512;SDS011;8369;48.030;11.598;2022-08-19T02:21:29;3.58;;;2.65;;
16512;SDS011;8369;48.030;11.598;2022-08-19T02:23:58;4.00;;;2.80;;
16512;SDS011;8369;48.030;11.598;2022-08-19T02:26:24;4.45;;;2.95;;
16512;SDS011;8369;48.030;11.598;2022-08-19T02:28:54;2.88;;;2.53;;
16512;SDS011;8369;48.030;11.598;2022-08-19T02:31:23;3.42;;;2.70;;
16512;SDS011;8369;48.030;11.598;2022-08-19T02:33:50;3.05;;;2.75;;
16512;SDS011;8369;48.030;11.598;2022-08-19T02:36:17;3.47;;;2.60;;
16512;SDS011;8369;48.030;11.598;2022-08-19T02:38:43;3.30;;;2.63;;
16512;SDS011;8369;48.030;11.598;2022-08-19T02:41:17;3.33;;;2.70;;
16512;SDS011;8369;48.030;11.598;2022-08-19T02:43:51;3.45;;;2.65;;
16512;SDS011;8369;48.030;11.598;2022-08-19T02:46:21;2.90;;;2.42;;
16512;SDS011;8369;48.030;11.598;2022-08-19T02:48:53;3.45;;;2.60;;
16512;SDS011;8369;48.030;11.598;2022-08-19T02:51:25;3.65;;;3.10;;
16512;SDS011;8369;48.030;11.598;2022-08-19T02:53:58;3.28;;;2.50;;
16512;SDS011;8369;48.030;11.598;2022-08-19T02:56:25;3.50;;;2.92;;
16512;SDS011;8369;48.030;11.598;2022-08-19T02:58:52;2.90;;;2.60;;
16512;SDS011;8369;48.030;11.598;2022-08-19T03:01:21;3.88;;;2.70;;
16512;SDS011;8369;48.030;11.598;2022-08-19T03:03:52;4.25;;;3.00;;
16512;SDS011;8369;48.030;11.598;2022-08-19T03:06:18;4.05;;;2.70;;
16512;SDS011;8369;48.030;11.598;2022-08-19T03:08:45;2.60;;;2.40;;
16512;SDS011;8369;48.030;11.598;2022-08-19T03:11:33;2.90;;;2.60;;
16512;SDS011;8369;48.030;11.598;2022-08-19T03:13:58;3.05;;;2.50;;
16512;SDS011;8369;48.030;11.598;2022-08-19T03:16:42;3.33;;;2.53;;
16512;SDS011;8369;48.030;11.598;2022-08-19T03:19:13;2.83;;;2.45;;
16512;SDS011;8369;48.030;11.598;2022-08-19T03:21:42;2.35;;;2.15;;
16512;SDS011;8369;48.030;11.598;2022-08-19T03:24:11;2.45;;;2.25;;
16512;SDS011;8369;48.030;11.598;2022-08-19T03:26:42;2.40;;;2.20;;
16512;SDS011;8369;48.030;11.598;2022-08-19T03:29:16;3.42;;;2.55;;
16512;SDS011;8369;48.030;11.598;2022-08-19T03:31:43;3.13;;;2.58;;
16512;SDS011;8369;48.030;11.598;2022-08-19T03:34:13;3.45;;;2.85;;
16512;SDS011;8369;48.030;11.598;2022-08-19T03:36:44;2.60;;;2.40;;
16512;SDS011;8369;48.030;11.598;2022-08-19T03:39:11;2.90;;;2.60;;
16512;SDS011;8369;48.030;11.598;2022-08-19T03:41:38;3.28;;;2.78;;
16512;SDS011;8369;48.030;11.598;2022-08-19T03:44:06;3.75;;;2.83;;
16512;SDS011;8369;48.030;11.598;2022-08-19T03:46:33;3.17;;;2.45;;
16512;SDS011;8369;48.030;11.598;2022-08-19T03:49:03;3.72;;;2.47;;
16512;SDS011;8369;48.030;11.598;2022-08-19T03:51:35;2.88;;;2.53;;
16512;SDS011;8369;48.030;11.598;2022-08-19T03:54:04;3.20;;;2.60;;
16512;SDS011;8369;48.030;11.598;2022-08-19T03:56:39;3.05;;;2.75;;
16512;SDS011;8369;48.030;11.598;2022-08-19T03:59:08;3.50;;;2.67;;
16512;SDS011;8369;48.030;11.598;2022-08-19T04:01:35;3.65;;;2.80;;
16512;SDS011;8369;48.030;11.598;2022-08-19T04:04:02;3.45;;;2.50;;
16512;SDS011;8369;48.030;11.598;2022-08-19T04:06:29;3.33;;;2.38;;
16512;SDS011;8369;48.030;11.598;2022-08-19T04:08:58;3.05;;;2.70;;
16512;SDS011;8369;48.030;11.598;2022-08-19T04:11:28;3.53;;;2.55;;
16512;SDS011;8369;48.030;11.598;2022-08-19T04:13:57;2.90;;;2.60;;
16512;SDS011;8369;48.030;11.598;2022-08-19T04:16:26;3.33;;;2.67;;
16512;SDS011;8369;48.030;11.598;2022-08-19T04:18:56;4.15;;;2.50;;
16512;SDS011;8369;48.030;11.598;2022-08-19T04:21:26;3.65;;;2.67;;
16512;SDS011;8369;48.030;11.598;2022-08-19T04:23:54;3.38;;;3.05;;
16512;SDS011;8369;48.030;11.598;2022-08-19T04:26:22;3.35;;;2.90;;
16512;SDS011;8369;48.030;11.598;2022-08-19T04:28:51;3.20;;;2.60;;
16512;SDS011;8369;48.030;11.598;2022-08-19T04:31:19;3.10;;;2.75;;
16512;SDS011;8369;48.030;11.598;2022-08-19T04:33:54;2.60;;;2.40;;
16512;SDS011;8369;48.030;11.598;2022-08-19T04:36:29;3.38;;;2.70;;
16512;SDS011;8369;48.030;11.598;2022-08-19T04:39:00;4.07;;;2.97;;
16512;SDS011;8369;48.030;11.598;2022-08-19T04:41:31;3.00;;;2.50;;
16512;SDS011;8369;48.030;11.598;2022-08-19T04:44:19;3.00;;;2.63;;
16512;SDS011;8369;48.030;11.598;2022-08-19T04:46:48;3.45;;;2.90;;
16512;SDS011;8369;48.030;11.598;2022-08-19T04:49:16;2.85;;;2.53;;
16512;SDS011;8369;48.030;11.598;2022-08-19T04:51:45;3.97;;;2.40;;
16512;SDS011;8369;48.030;11.598;2022-08-19T04:54:13;3.10;;;2.53;;
16512;SDS011;8369;48.030;11.598;2022-08-19T04:56:39;3.33;;;2.30;;
16512;SDS011;8369;48.030;11.598;2022-08-19T04:59:06;2.80;;;2.20;;
16512;SDS011;8369;48.030;11.598;2022-08-19T05:01:36;3.20;;;2.60;;
16512;SDS011;8369;48.030;11.598;2022-08-19T05:04:03;2.83;;;2.50;;
16512;SDS011;8369;48.030;11.598;2022-08-19T05:06:30;3.08;;;2.50;;
16512;SDS011;8369;48.030;11.598;2022-08-19T05:09:09;3.28;;;2.38;;
16512;SDS011;8369;48.030;11.598;2022-08-19T05:11:41;2.80;;;2.45;;
16512;SDS011;8369;48.030;11.598;2022-08-19T05:14:08;5.05;;;2.35;;
16512;SDS011;8369;48.030;11.598;2022-08-19T05:16:35;6.07;;;2.45;;
16512;SDS011;8369;48.030;11.598;2022-08-19T05:19:00;2.83;;;2.40;;
16512;SDS011;8369;48.030;11.598;2022-08-19T05:21:45;2.53;;;2.33;;
16512;SDS011;8369;48.030;11.598;2022-08-19T05:24:29;2.50;;;2.20;;
16512;SDS011;8369;48.030;11.598;2022-08-19T05:26:57;2.78;;;2.20;;
16512;SDS011;8369;48.030;11.598;2022-08-19T05:29:24;4.38;;;2.53;;
16512;SDS011;8369;48.030;11.598;2022-08-19T05:31:53;2.72;;;2.53;;
16512;SDS011;8369;48.030;11.598;2022-08-19T05:34:22;3.33;;;2.65;;
16512;SDS011;8369;48.030;11.598;2022-08-19T05:36:53;2.53;;;2.33;;
16512;SDS011;8369;48.030;11.598;2022-08-19T05:39:27;3.60;;;2.38;;
16512;SDS011;8369;48.030;11.598;2022-08-19T05:41:58;2.50;;;2.30;;
16512;SDS011;8369;48.030;11.598;2022-08-19T05:44:27;2.60;;;2.25;;
16512;SDS011;8369;48.030;11.598;2022-08-19T05:47:02;3.55;;;2.38;;
16512;SDS011;8369;48.030;11.598;2022-08-19T05:49:31;2.72;;;2.40;;
16512;SDS011;8369;48.030;11.598;2022-08-19T05:51:58;2.53;;;2.20;;
16512;SDS011;8369;48.030;11.598;2022-08-19T05:54:26;2.63;;;2.42;;
16512;SDS011;8369;48.030;11.598;2022-08-19T05:56:52;3.78;;;2.72;;
16512;SDS011;8369;48.030;11.598;2022-08-19T05:59:19;4.43;;;2.40;;
16512;SDS011;8369;48.030;11.598;2022-08-19T06:01:46;2.67;;;2.38;;
16512;SDS011;8369;48.030;11.598;2022-08-19T06:04:15;3.83;;;2.60;;
16512;SDS011;8369;48.030;11.598;2022-08-19T06:06:44;3.08;;;2.70;;
16512;SDS011;8369;48.030;11.598;2022-08-19T06:09:11;3.13;;;2.78;;
16512;SDS011;8369;48.030;11.598;2022-08-19T06:11:41;3.10;;;2.50;;
16512;SDS011;8369;48.030;11.598;2022-08-19T06:14:10;3.15;;;2.53;;
16512;SDS011;8369;48.030;11.598;2022-08-19T06:16:43;2.95;;;2.58;;
16512;SDS011;8369;48.030;11.598;2022-08-19T06:19:13;3.17;;;2.85;;
16512;SDS011;8369;48.030;11.598;2022-08-19T06:21:42;3.30;;;2.88;;
16512;SDS011;8369;48.030;11.598;2022-08-19T06:24:13;3.50;;;2.40;;
16512;SDS011;8369;48.030;11.598;2022-08-19T06:26:41;2.88;;;2.58;;
16512;SDS011;8369;48.030;11.598;2022-08-19T06:29:10;2.97;;;2.63;;
16512;SDS011;8369;48.030;11.598;2022-08-19T06:31:40;2.88;;;2.60;;
16512;SDS011;8369;48.030;11.598;2022-08-19T06:34:08;3.33;;;2.85;;
16512;SDS011;8369;48.030;11.598;2022-08-19T06:36:38;5.10;;;2.78;;
16512;SDS011;8369;48.030;11.598;2022-08-19T06:39:17;5.00;;;3.22;;
16512;SDS011;8369;48.030;11.598;2022-08-19T06:41:46;5.03;;;2.78;;
16512;SDS011;8369;48.030;11.598;2022-08-19T06:44:14;3.20;;;2.35;;
16512;SDS011;8369;48.030;11.598;2022-08-19T06:46:41;3.63;;;3.10;;
16512;SDS011;8369;48.030;11.598;2022-08-19T06:49:07;3.35;;;2.90;;
16512;SDS011;8369;48.030;11.598;2022-08-19T06:51:35;2.97;;;2.60;;
16512;SDS011;8369;48.030;11.598;2022-08-19T06:54:04;3.53;;;2.75;;
16512;SDS011;8369;48.030;11.598;2022-08-19T06:56:30;4.70;;;3.38;;
16512;SDS011;8369;48.030;11.598;2022-08-19T06:59:00;4.80;;;3.70;;
16512;SDS011;8369;48.030;11.598;2022-08-19T07:01:39;4.18;;;3.20;;
16512;SDS011;8369;48.030;11.598;2022-08-19T07:04:19;5.75;;;3.85;;
16512;SDS011;8369;48.030;11.598;2022-08-19T07:06:47;4.65;;;3.58;;
16512;SDS011;8369;48.030;11.598;2022-08-19T07:09:14;4.90;;;4.28;;
16512;SDS011;8369;48.030;11.598;2022-08-19T07:11:46;5.30;;;4.13;;
16512;SDS011;8369;48.030;11.598;2022-08-19T07:14:15;5.10;;;4.10;;
16512;SDS011;8369;48.030;11.598;2022-08-19T07:16:44;6.30;;;5.13;;
16512;SDS011;8369;48.030;11.598;2022-08-19T07:19:11;7.18;;;4.85;;
16512;SDS011;8369;48.030;11.598;2022-08-19T07:21:40;7.60;;;5.90;;
16512;SDS011;8369;48.030;11.598;2022-08-19T07:24:07;7.75;;;5.93;;
16512;SDS011;8369;48.030;11.598;2022-08-19T07:26:37;8.00;;;5.72;;
16512;SDS011;8369;48.030;11.598;2022-08-19T07:29:05;7.68;;;6.00;;
16512;SDS011;8369;48.030;11.598;2022-08-19T07:31:32;7.60;;;5.57;;
16512;SDS011;8369;48.030;11.598;2022-08-19T07:34:02;8.82;;;6.30;;
16512;SDS011;8369;48.030;11.598;2022-08-19T07:36:32;8.30;;;6.35;;
16512;SDS011;8369;48.030;11.598;2022-08-19T07:38:59;11.35;;;6.72;;
16512;SDS011;8369;48.030;11.598;2022-08-19T07:41:29;10.40;;;6.72;;
16512;SDS011;8369;48.030;11.598;2022-08-19T07:43:57;8.60;;;6.60;;
16512;SDS011;8369;48.030;11.598;2022-08-19T07:46:29;9.25;;;6.68;;
16512;SDS011;8369;48.030;11.598;2022-08-19T07:48:59;9.75;;;7.30;;
16512;SDS011;8369;48.030;11.598;2022-08-19T07:51:26;8.80;;;7.03;;
16512;SDS011;8369;48.030;11.598;2022-08-19T07:53:53;9.68;;;6.70;;
16512;SDS011;8369;48.030;11.598;2022-08-19T07:56:23;9.32;;;6.72;;
16512;SDS011;8369;48.030;11.598;2022-08-19T07:58:50;10.32;;;7.38;;
16512;SDS011;8369;48.030;11.598;2022-08-19T08:01:19;11.20;;;7.70;;
16512;SDS011;8369;48.030;11.598;2022-08-19T08:03:47;12.07;;;7.22;;
16512;SDS011;8369;48.030;11.598;2022-08-19T08:06:32;12.43;;;7.22;;
16512;SDS011;8369;48.030;11.598;2022-08-19T08:09:19;12.40;;;7.75;;
16512;SDS011;8369;48.030;11.598;2022-08-19T08:11:54;9.52;;;7.07;;
16512;SDS011;8369;48.030;11.598;2022-08-19T08:14:24;11.63;;;7.85;;
16512;SDS011;8369;48.030;11.598;2022-08-19T08:16:58;10.88;;;7.75;;
16512;SDS011;8369;48.030;11.598;2022-08-19T08:19:25;10.52;;;7.80;;
16512;SDS011;8369;48.030;11.598;2022-08-19T08:21:52;10.07;;;7.85;;
16512;SDS011;8369;48.030;11.598;2022-08-19T08:24:20;12.70;;;7.18;;
16512;SDS011;8369;48.030;11.598;2022-08-19T08:26:45;9.32;;;6.93;;
16512;SDS011;8369;48.030;11.598;2022-08-19T08:29:12;11.00;;;7.47;;
16512;SDS011;8369;48.030;11.598;2022-08-19T08:31:39;10.48;;;7.18;;
16512;SDS011;8369;48.030;11.598;2022-08-19T08:34:06;10.55;;;7.45;;
16512;SDS011;8369;48.030;11.598;2022-08-19T08:36:37;10.63;;;7.55;;
16512;SDS011;8369;48.030;11.598;2022-08-19T08:39:15;10.02;;;7.25;;
16512;SDS011;8369;48.030;11.598;2022-08-19T08:44:20;8.52;;;6.57;;
16512;SDS011;8369;48.030;11.598;2022-08-19T08:47:03;9.80;;;7.00;;
16512;SDS011;8369;48.030;11.598;2022-08-19T08:52:28;8.90;;;6.55;;
16512;SDS011;8369;48.030;11.598;2022-08-19T08:54:59;8.63;;;5.88;;
16512;SDS011;8369;48.030;11.598;2022-08-19T09:00:27;6.50;;;5.15;;
16512;SDS011;8369;48.030;11.598;2022-08-19T09:03:00;6.28;;;4.68;;
16512;SDS011;8369;48.030;11.598;2022-08-19T09:05:33;6.03;;;4.75;;
16512;SDS011;8369;48.030;11.598;2022-08-19T09:11:10;7.53;;;5.72;;
16512;SDS011;8369;48.030;11.598;2022-08-19T09:16:49;6.82;;;5.43;;
16512;SDS011;8369;48.030;11.598;2022-08-19T09:19:16;7.53;;;5.82;;
16512;SDS011;8369;48.030;11.598;2022-08-19T09:21:43;8.13;;;5.55;;
16512;SDS011;8369;48.030;11.598;2022-08-19T09:24:11;10.23;;;5.95;;
16512;SDS011;8369;48.030;11.598;2022-08-19T09:26:37;9.02;;;6.00;;
16512;SDS011;8369;48.030;11.598;2022-08-19T09:29:03;8.77;;;6.85;;
16512;SDS011;8369;48.030;11.598;2022-08-19T09:31:34;8.73;;;6.05;;
16512;SDS011;8369;48.030;11.598;2022-08-19T09:34:00;9.13;;;5.85;;
16512;SDS011;8369;48.030;11.598;2022-08-19T09:36:31;8.70;;;5.90;;
16512;SDS011;8369;48.030;11.598;2022-08-19T09:39:05;7.68;;;5.90;;
16512;SDS011;8369;48.030;11.598;2022-08-19T09:41:31;9.13;;;6.47;;
16512;SDS011;8369;48.030;11.598;2022-08-19T09:43:58;8.55;;;5.90;;
16512;SDS011;8369;48.030;11.598;2022-08-19T09:46:28;9.95;;;6.13;;
16512;SDS011;8369;48.030;11.598;2022-08-19T09:48:56;10.30;;;6.60;;
16512;SDS011;8369;48.030;11.598;2022-08-19T09:51:25;11.20;;;7.28;;
16512;SDS011;8369;48.030;11.598;2022-08-19T09:53:52;11.30;;;7.40;;
16512;SDS011;8369;48.030;11.598;2022-08-19T09:56:19;10.02;;;6.35;;
16512;SDS011;8369;48.030;11.598;2022-08-19T09:58:47;10.13;;;7.45;;
16512;SDS011;8369;48.030;11.598;2022-08-19T10:01:17;7.88;;;6.40;;
16512;SDS011;8369;48.030;11.598;2022-08-19T10:03:49;9.40;;;6.88;;
16512;SDS011;8369;48.030;11.598;2022-08-19T10:06:18;12.35;;;7.32;;
16512;SDS011;8369;48.030;11.598;2022-08-19T10:08:44;6.63;;;5.68;;
16512;SDS011;8369;48.030;11.598;2022-08-19T10:11:11;8.68;;;6.70;;
16512;SDS011;8369;48.030;11.598;2022-08-19T10:13:39;8.77;;;7.05;;
16512;SDS011;8369;48.030;11.598;2022-08-19T10:16:07;8.90;;;6.18;;
16512;SDS011;8369;48.030;11.598;2022-08-19T10:18:35;7.50;;;6.05;;
16512;SDS011;8369;48.030;11.598;2022-08-19T10:21:04;6.70;;;5.40;;
16512;SDS011;8369;48.030;11.598;2022-08-19T10:23:35;6.10;;;4.50;;
16512;SDS011;8369;48.030;11.598;2022-08-19T10:26:03;7.07;;;4.97;;
16512;SDS011;8369;48.030;11.598;2022-08-19T10:28:31;5.88;;;4.15;;
16512;SDS011;8369;48.030;11.598;2022-08-19T10:30:58;5.82;;;4.50;;
16512;SDS011;8369;48.030;11.598;2022-08-19T10:33:28;6.40;;;4.72;;
16512;SDS011;8369;48.030;11.598;2022-08-19T10:36:00;4.63;;;3.65;;
16512;SDS011;8369;48.030;11.598;2022-08-19T10:38:30;5.55;;;4.43;;
16512;SDS011;8369;48.030;11.598;2022-08-19T10:41:13;7.10;;;4.55;;
16512;SDS011;8369;48.030;11.598;2022-08-19T10:43:41;4.95;;;3.92;;
16512;SDS011;8369;48.030;11.598;2022-08-19T10:46:12;5.25;;;4.72;;
16512;SDS011;8369;48.030;11.598;2022-08-19T10:48:41;5.60;;;4.32;;
16512;SDS011;8369;48.030;11.598;2022-08-19T10:51:11;5.97;;;4.22;;
16512;SDS011;8369;48.030;11.598;2022-08-19T10:53:56;5.28;;;4.45;;
16512;SDS011;8369;48.030;11.598;2022-08-19T10:56:23;4.72;;;3.80;;
16512;SDS011;8369;48.030;11.598;2022-08-19T10:59:08;3.88;;;3.40;;
16512;SDS011;8369;48.030;11.598;2022-08-19T11:01:34;3.75;;;3.00;;
16512;SDS011;8369;48.030;11.598;2022-08-19T11:04:02;3.50;;;3.15;;
16512;SDS011;8369;48.030;11.598;2022-08-19T11:06:31;4.60;;;3.47;;
16512;SDS011;8369;48.030;11.598;2022-08-19T11:08:57;4.15;;;3.63;;
16512;SDS011;8369;48.030;11.598;2022-08-19T11:11:25;5.50;;;3.45;;
16512;SDS011;8369;48.030;11.598;2022-08-19T11:13:52;4.20;;;3.35;;
16512;SDS011;8369;48.030;11.598;2022-08-19T11:16:22;4.93;;;4.32;;
16512;SDS011;8369;48.030;11.598;2022-08-19T11:18:51;5.13;;;3.63;;
16512;SDS011;8369;48.030;11.598;2022-08-19T11:21:23;4.50;;;3.70;;
16512;SDS011;8369;48.030;11.598;2022-08-19T11:23:51;3.83;;;3.30;;
16512;SDS011;8369;48.030;11.598;2022-08-19T11:26:20;4.53;;;3.03;;
16512;SDS011;8369;48.030;11.598;2022-08-19T11:28:47;3.72;;;3.28;;
16512;SDS011;8369;48.030;11.598;2022-08-19T11:31:20;3.22;;;2.80;;
16512;SDS011;8369;48.030;11.598;2022-08-19T11:33:48;3.15;;;2.78;;
16512;SDS011;8369;48.030;11.598;2022-08-19T11:36:19;3.38;;;2.83;;
16512;SDS011;8369;48.030;11.598;2022-08-19T11:38:49;2.72;;;2.53;;
16512;SDS011;8369;48.030;11.598;2022-08-19T11:41:20;3.30;;;2.90;;
16512;SDS011;8369;48.030;11.598;2022-08-19T11:43:48;4.30;;;3.10;;
16512;SDS011;8369;48.030;11.598;2022-08-19T11:46:15;3.17;;;2.60;;
16512;SDS011;8369;48.030;11.598;2022-08-19T11:48:42;3.92;;;3.22;;
16512;SDS011;8369;48.030;11.598;2022-08-19T11:51:18;2.97;;;2.53;;
16512;SDS011;8369;48.030;11.598;2022-08-19T11:53:48;3.22;;;2.85;;
16512;SDS011;8369;48.030;11.598;2022-08-19T11:56:16;2.90;;;2.55;;
16512;SDS011;8369;48.030;11.598;2022-08-19T11:58:43;3.10;;;2.80;;
16512;SDS011;8369;48.030;11.598;2022-08-19T12:01:14;3.25;;;2.95;;
16512;SDS011;8369;48.030;11.598;2022-08-19T12:04:05;3.45;;;3.00;;
16512;SDS011;8369;48.030;11.598;2022-08-19T12:06:46;3.42;;;3.13;;
16512;SDS011;8369;48.030;11.598;2022-08-19T12:09:15;5.25;;;4.20;;
16512;SDS011;8369;48.030;11.598;2022-08-19T12:11:50;11.70;;;4.80;;
16512;SDS011;8369;48.030;11.598;2022-08-19T12:14:24;6.75;;;5.30;;
16512;SDS011;8369;48.030;11.598;2022-08-19T12:17:13;5.78;;;4.88;;
16512;SDS011;8369;48.030;11.598;2022-08-19T12:19:44;7.53;;;5.50;;
16512;SDS011;8369;48.030;11.598;2022-08-19T12:22:37;8.57;;;6.20;;
16512;SDS011;8369;48.030;11.598;2022-08-19T12:25:05;5.90;;;5.05;;
16512;SDS011;8369;48.030;11.598;2022-08-19T12:27:40;6.30;;;4.88;;
16512;SDS011;8369;48.030;11.598;2022-08-19T12:30:10;7.97;;;5.20;;
16512;SDS011;8369;48.030;11.598;2022-08-19T12:32:41;6.63;;;5.18;;
16512;SDS011;8369;48.030;11.598;2022-08-19T12:35:21;5.78;;;4.45;;
16512;SDS011;8369;48.030;11.598;2022-08-19T12:37:48;5.45;;;4.13;;
16512;SDS011;8369;48.030;11.598;2022-08-19T12:40:15;3.97;;;3.42;;
16512;SDS011;8369;48.030;11.598;2022-08-19T12:42:42;5.43;;;3.70;;
16512;SDS011;8369;48.030;11.598;2022-08-19T12:45:09;3.25;;;2.95;;
16512;SDS011;8369;48.030;11.598;2022-08-19T12:47:37;4.97;;;2.80;;
16512;SDS011;8369;48.030;11.598;2022-08-19T12:50:04;4.28;;;2.88;;
16512;SDS011;8369;48.030;11.598;2022-08-19T12:52:31;4.00;;;2.92;;
16512;SDS011;8369;48.030;11.598;2022-08-19T12:54:57;3.38;;;3.08;;
16512;SDS011;8369;48.030;11.598;2022-08-19T12:57:25;2.78;;;2.50;;
16512;SDS011;8369;48.030;11.598;2022-08-19T12:59:56;3.15;;;2.25;;
16512;SDS011;8369;48.030;11.598;2022-08-19T13:02:22;3.25;;;2.47;;
16512;SDS011;8369;48.030;11.598;2022-08-19T13:04:50;2.80;;;2.45;;
16512;SDS011;8369;48.030;11.598;2022-08-19T13:07:16;3.25;;;2.33;;
16512;SDS011;8369;48.030;11.598;2022-08-19T13:09:45;2.28;;;2.08;;
16512;SDS011;8369;48.030;11.598;2022-08-19T13:12:10;1.73;;;1.60;;
16512;SDS011;8369;48.030;11.598;2022-08-19T13:14:40;1.85;;;1.70;;
16512;SDS011;8369;48.030;11.598;2022-08-19T13:17:11;1.70;;;1.60;;
16512;SDS011;8369;48.030;11.598;2022-08-19T13:19:38;1.63;;;1.52;;
16512;SDS011;8369;48.030;11.598;2022-08-19T13:22:06;1.63;;;1.52;;
16512;SDS011;8369;48.030;11.598;2022-08-19T13:24:33;1.70;;;1.50;;
16512;SDS011;8369;48.030;11.598;2022-08-19T13:27:01;2.25;;;1.38;;
16512;SDS011;8369;48.030;11.598;2022-08-19T13:29:28;1.77;;;1.67;;
16512;SDS011;8369;48.030;11.598;2022-08-19T13:32:12;1.65;;;1.35;;
16512;SDS011;8369;48.030;11.598;2022-08-19T13:34:56;1.40;;;1.30;;
16512;SDS011;8369;48.030;11.598;2022-08-19T13:37:22;1.95;;;1.55;;
16512;SDS011;8369;48.030;11.598;2022-08-19T13:40:07;2.80;;;1.60;;
16512;SDS011;8369;48.030;11.598;2022-08-19T13:42:40;1.65;;;1.55;;
16512;SDS011;8369;48.030;11.598;2022-08-19T13:45:10;1.55;;;1.40;;
16512;SDS011;8369;48.030;11.598;2022-08-19T13:47:36;1.38;;;1.27;;
16512;SDS011;8369;48.030;11.598;2022-08-19T13:50:23;1.50;;;1.40;;
16512;SDS011;8369;48.030;11.598;2022-08-19T13:52:55;1.60;;;1.35;;
16512;SDS011;8369;48.030;11.598;2022-08-19T13:55:21;2.00;;;1.45;;
16512;SDS011;8369;48.030;11.598;2022-08-19T13:57:51;1.70;;;1.58;;
16512;SDS011;8369;48.030;11.598;2022-08-19T14:00:18;1.98;;;1.77;;
16512;SDS011;8369;48.030;11.598;2022-08-19T14:02:45;2.22;;;1.40;;
16512;SDS011;8369;48.030;11.598;2022-08-19T14:05:14;1.70;;;1.60;;
16512;SDS011;8369;48.030;11.598;2022-08-19T14:07:41;1.70;;;1.52;;
16512;SDS011;8369;48.030;11.598;2022-08-19T14:10:10;1.55;;;1.45;;
16512;SDS011;8369;48.030;11.598;2022-08-19T14:12:37;1.67;;;1.52;;
16512;SDS011;8369;48.030;11.598;2022-08-19T14:15:08;2.92;;;2.05;;
16512;SDS011;8369;48.030;11.598;2022-08-19T14:17:37;3.10;;;1.60;;
16512;SDS011;8369;48.030;11.598;2022-08-19T14:20:05;1.73;;;1.60;;
16512;SDS011;8369;48.030;11.598;2022-08-19T14:22:35;1.88;;;1.67;;
16512;SDS011;8369;48.030;11.598;2022-08-19T14:25:02;1.70;;;1.60;;
16512;SDS011;8369;48.030;11.598;2022-08-19T14:27:30;1.88;;;1.75;;
16512;SDS011;8369;48.030;11.598;2022-08-19T14:29:59;2.00;;;1.80;;
16512;SDS011;8369;48.030;11.598;2022-08-19T14:32:25;2.03;;;1.80;;
16512;SDS011;8369;48.030;11.598;2022-08-19T14:34:51;1.77;;;1.67;;
16512;SDS011;8369;48.030;11.598;2022-08-19T14:37:18;2.75;;;2.03;;
16512;SDS011;8369;48.030;11.598;2022-08-19T14:39:44;2.20;;;2.00;;
16512;SDS011;8369;48.030;11.598;2022-08-19T14:42:11;1.67;;;1.58;;
16512;SDS011;8369;48.030;11.598;2022-08-19T14:44:40;2.10;;;1.90;;
16512;SDS011;8369;48.030;11.598;2022-08-19T14:47:09;1.98;;;1.73;;
16512;SDS011;8369;48.030;11.598;2022-08-19T14:49:36;2.03;;;1.73;;
16512;SDS011;8369;48.030;11.598;2022-08-19T14:52:02;2.00;;;1.80;;
16512;SDS011;8369;48.030;11.598;2022-08-19T14:54:29;1.90;;;1.75;;
16512;SDS011;8369;48.030;11.598;2022-08-19T14:56:55;1.83;;;1.73;;
16512;SDS011;8369;48.030;11.598;2022-08-19T14:59:21;1.90;;;1.80;;
16512;SDS011;8369;48.030;11.598;2022-08-19T15:01:47;1.70;;;1.50;;
16512;SDS011;8369;48.030;11.598;2022-08-19T15:04:13;2.25;;;1.23;;
16512;SDS011;8369;48.030;11.598;2022-08-19T15:06:39;1.42;;;1.33;;
16512;SDS011;8369;48.030;11.598;2022-08-19T15:09:07;1.52;;;1.40;;
16512;SDS011;8369;48.030;11.598;2022-08-19T15:11:34;1.30;;;1.20;;
16512;SDS011;8369;48.030;11.598;2022-08-19T15:14:02;1.45;;;1.35;;
16512;SDS011;8369;48.030;11.598;2022-08-19T15:16:31;1.30;;;1.20;;
16512;SDS011;8369;48.030;11.598;2022-08-19T15:18:58;1.52;;;1.42;;